رامسر, ایران

12:12 PM IRST on اكتبر 25, 2014 (GMT +0330)
Ramsar | Change Station
CLOSE
Current Station
Airport
Location: Ramsar,
Elevation: -66 ft
Nearby Weather Stations

Elev -66 ft 36.91 °N, 50.68 °E | Updated 42 minutes ago

Mostly Cloudy
بیشتر ابری
68 °F
Feels Like 68 °F
N
5
باد متغير باد from شمال شرقی

امروز
High -- | Low -- °F
--% Chance of Precip.
دیروز
High -- | Low -- °F
Precip. -- در
6:23 AM 5:18 PM
ماه جدید, 2% visible
فشار 29.95 در
ديد 6.2 مايل، ميل (در برابر كيلومتر
ابری Few 2000 ft
ابرهای پراکنده 2500 ft
بیشتر ابری 9000 ft
قطره شبنم 57 °F
رطوبت 68%
بارش باران 0.00 در
برف عمیق Not available.
مادون قرمز 3 out of 12
Pollen Not available.
تمیزی هوا Not available.
Flu Activity Not available.
METAR OINR 250800Z 04004KT 9999 FEW020CB SCT025 BKN090 20/14 Q1014

More Conditions Fewer Conditions

فشار 29.95 در
ديد 6.2 مايل، ميل (در برابر كيلومتر
ابری Few 2000 ft
ابرهای پراکنده 2500 ft
بیشتر ابری 9000 ft
قطره شبنم 57 °F
رطوبت 68%
بارش باران 0.00 در
برف عمیق Not available.
مادون قرمز 3 out of 12
Pollen Not available.
تمیزی هوا Not available.
Flu Activity Not available.
METAR OINR 250800Z 04004KT 9999 FEW020CB SCT025 BKN090 20/14 Q1014

More Conditions Fewer Conditions

10-Day Weather Forecast

Almanac

ستاره شناسی

Oct. 25, 2014 Rise Set
وقت حقیقی 6:23 AM IRST 5:18 PM IRST
تاریک و روشن اجتماعی 5:57 AM IRST 5:44 PM IRST
تاریک روشن دریایی 5:27 AM IRST 6:15 PM IRST
شفق و فلق نجومی 4:56 AM IRST 6:45 PM IRST
ماه 7:38 AM IRST 6:25 PM IRST
میزان روشنایی روز 11h 47m
طول روز
10h 54m
Tomorrow will be 2m 11s shorter.
ماه جدید, 2% of the Moon is Illuminated
امروز
ماه جدید
Oct 30
ربع اول
Nov 6
ماه کامل
Nov 14
ربع آخر
Nov 22
New

Yesterday's Extremes

Country Highs Country Lows

Community

WunderPhotos

Upload Photos

1,764,791 photos uploaded!

Nearby

تمیزی هوا

Not available.

عمق برف

Not available.

Earthquake Activity

شهر Distance Mag. Time & Date
No recent earthquake activity has been reported nearby.
Minimum magnitude displayed is 2.5.

Coastal Water Temperatures

منطقه درجه حرارت
No Stations Reporting

Nearby Weather Stations